createdAt,value
2019-05-10T00:01:07.480Z,91.00
2019-05-10T00:06:48.191Z,91.00
2019-05-10T00:09:17.056Z,91.20
2019-05-10T00:11:49.335Z,91.30
2019-05-10T00:14:39.332Z,91.30
2019-05-10T00:17:10.540Z,91.20
2019-05-10T00:19:40.010Z,91.30
2019-05-10T00:22:09.444Z,91.60
2019-05-10T00:24:41.307Z,91.90
2019-05-10T00:27:10.899Z,91.70
2019-05-10T00:29:52.522Z,91.70
2019-05-10T00:32:21.980Z,91.60
2019-05-10T00:34:51.503Z,91.80
2019-05-10T00:37:27.627Z,91.70
2019-05-10T00:39:57.106Z,91.70
2019-05-10T00:42:26.613Z,91.60
2019-05-10T00:44:56.050Z,91.50
2019-05-10T00:47:25.534Z,91.40
2019-05-10T00:49:54.988Z,91.50
2019-05-10T00:52:24.514Z,91.60
2019-05-10T00:54:59.683Z,91.60
2019-05-10T00:57:29.142Z,91.90
2019-05-10T00:59:58.594Z,91.90
2019-05-10T01:02:28.072Z,92.00
2019-05-10T01:04:57.513Z,92.20
2019-05-10T01:07:26.978Z,92.20
2019-05-10T01:09:56.479Z,92.20
2019-05-10T01:12:25.914Z,92.20
2019-05-10T01:14:55.410Z,92.20
2019-05-10T01:17:24.890Z,92.20
2019-05-10T01:19:54.450Z,92.10
2019-05-10T01:22:23.953Z,92.10
2019-05-10T01:24:53.409Z,92.10
2019-05-10T01:27:22.827Z,91.90
2019-05-10T01:29:52.416Z,91.70
2019-05-10T01:32:21.926Z,91.90
2019-05-10T01:34:51.378Z,91.80
2019-05-10T01:37:20.906Z,91.70
2019-05-10T01:39:50.435Z,91.70
2019-05-10T01:42:19.904Z,91.60
2019-05-10T01:44:49.353Z,91.70
2019-05-10T01:47:18.809Z,91.70
2019-05-10T01:49:48.300Z,91.60
2019-05-10T01:52:17.738Z,91.60
2019-05-10T01:54:47.203Z,91.50
2019-05-10T01:57:16.666Z,91.50
2019-05-10T01:59:46.127Z,91.40
2019-05-10T02:02:15.666Z,91.40
2019-05-10T02:04:45.639Z,91.40
2019-05-10T02:07:15.161Z,91.50
2019-05-10T02:09:44.627Z,91.60
2019-05-10T02:12:14.133Z,91.50
2019-05-10T02:14:45.438Z,91.50
2019-05-10T02:17:14.916Z,91.50
2019-05-10T02:19:44.350Z,91.20
2019-05-10T02:22:13.814Z,91.30
2019-05-10T02:24:43.279Z,91.40
2019-05-10T02:27:12.727Z,91.50
2019-05-10T02:29:42.208Z,91.50
2019-05-10T02:32:11.691Z,91.50
2019-05-10T02:34:41.141Z,91.50
2019-05-10T02:37:10.599Z,91.60
2019-05-10T02:39:40.067Z,91.60
2019-05-10T02:42:09.518Z,91.70
2019-05-10T02:44:38.960Z,91.70
2019-05-10T02:47:08.475Z,91.80
2019-05-10T02:49:37.962Z,91.90
2019-05-10T02:52:10.422Z,91.80
2019-05-10T02:54:40.069Z,91.80
2019-05-10T02:57:11.501Z,91.80
2019-05-10T02:59:52.730Z,91.80
2019-05-10T03:02:23.845Z,91.90
2019-05-10T03:04:54.436Z,91.70
2019-05-10T03:07:26.080Z,91.90
2019-05-10T03:09:55.527Z,91.80
2019-05-10T03:12:26.579Z,91.80
2019-05-10T03:14:57.987Z,91.70
2019-05-10T03:17:41.329Z,91.90
2019-05-10T03:20:12.719Z,91.60
2019-05-10T03:22:43.731Z,91.70
2019-05-10T03:25:15.093Z,91.70
2019-05-10T03:27:44.693Z,91.70
2019-05-10T03:30:15.088Z,91.70
2019-05-10T03:32:44.543Z,91.90
2019-05-10T03:35:14.080Z,91.90
2019-05-10T03:37:44.614Z,91.90
2019-05-10T03:40:14.207Z,91.70
2019-05-10T03:42:43.729Z,91.80
2019-05-10T03:45:14.987Z,91.70
2019-05-10T03:47:44.551Z,91.70
2019-05-10T03:50:14.123Z,91.60
2019-05-10T03:52:43.624Z,91.60
2019-05-10T03:55:13.146Z,91.60
2019-05-10T03:57:42.582Z,91.80
2019-05-10T04:00:13.292Z,91.60
2019-05-10T04:15:31.388Z,91.80
2019-05-10T04:18:13.075Z,91.70
2019-05-10T04:20:42.633Z,91.70
2019-05-10T04:23:12.078Z,91.60
2019-05-10T04:25:41.528Z,91.60
2019-05-10T04:28:10.978Z,91.70
2019-05-10T04:30:40.437Z,91.60
2019-05-10T04:33:09.870Z,91.50
2019-05-10T04:35:51.940Z,91.50
2019-05-10T04:38:21.373Z,91.50
2019-05-10T04:40:50.805Z,91.30
2019-05-10T04:43:20.279Z,91.00
2019-05-10T04:45:49.729Z,90.80
2019-05-10T04:48:19.171Z,90.80
2019-05-10T04:50:49.415Z,90.80
2019-05-10T04:53:19.187Z,90.80
2019-05-10T04:55:48.732Z,90.90
2019-05-10T04:58:18.187Z,90.80
2019-05-10T05:00:47.651Z,90.80
2019-05-10T05:03:17.096Z,90.40
2019-05-10T05:05:46.600Z,90.30
2019-05-10T05:08:16.270Z,90.20
2019-05-10T05:10:45.730Z,90.00
2019-05-10T05:13:15.216Z,90.00
2019-05-10T05:15:44.655Z,89.20
2019-05-10T05:18:14.118Z,89.20
2019-05-10T05:20:43.579Z,89.80
2019-05-10T05:23:13.025Z,89.70
2019-05-10T05:25:42.455Z,89.60
2019-05-10T05:28:11.909Z,89.80
2019-05-10T05:30:41.387Z,89.70
2019-05-10T05:33:10.861Z,90.00
2019-05-10T05:35:40.343Z,90.20
2019-05-10T05:38:09.773Z,90.60
2019-05-10T05:40:39.231Z,90.80
2019-05-10T05:43:09.864Z,90.80
2019-05-10T05:45:39.338Z,91.10
2019-05-10T05:48:08.889Z,91.20
2019-05-10T05:50:59.199Z,91.10
2019-05-10T05:53:28.675Z,91.10
2019-05-10T05:56:03.081Z,91.20
2019-05-10T05:58:29.313Z,90.90
2019-05-10T06:00:58.804Z,90.50
2019-05-10T06:03:40.484Z,90.30
2019-05-10T06:06:21.619Z,89.90
2019-05-10T06:08:41.069Z,89.50
2019-05-10T06:11:10.498Z,88.30
2019-05-10T06:13:40.059Z,88.10
2019-05-10T06:16:12.761Z,88.70
2019-05-10T06:18:47.121Z,88.10
2019-05-10T06:21:18.020Z,87.20
2019-05-10T06:23:43.910Z,85.80
2019-05-10T06:26:21.452Z,85.30
2019-05-10T06:28:58.177Z,84.60
2019-05-10T06:31:16.955Z,85.00
2019-05-10T06:33:46.873Z,85.20
2019-05-10T06:36:17.678Z,85.80
2019-05-10T06:38:47.176Z,87.00
2019-05-10T06:41:17.430Z,87.30
2019-05-10T06:43:51.240Z,88.00
2019-05-10T06:46:23.468Z,88.00
2019-05-10T06:48:49.940Z,87.80
2019-05-10T06:51:59.335Z,82.60
2019-05-10T06:54:31.406Z,81.60
2019-05-10T06:57:00.856Z,80.90
2019-05-10T06:59:31.851Z,80.90
2019-05-10T07:02:01.287Z,81.20
2019-05-10T07:04:35.031Z,81.60
2019-05-10T07:07:02.985Z,79.90
2019-05-10T07:10:00.365Z,80.10
2019-05-10T07:12:03.711Z,80.20
2019-05-10T07:14:34.646Z,79.70
2019-05-10T07:17:05.584Z,80.60
2019-05-10T07:19:41.930Z,80.50
2019-05-10T07:22:13.147Z,80.10
2019-05-10T07:24:43.183Z,80.20
2019-05-10T07:27:12.730Z,81.80
2019-05-10T07:29:45.909Z,80.30
2019-05-10T07:32:16.362Z,78.70
2019-05-10T07:34:48.827Z,78.00
2019-05-10T07:37:15.534Z,76.30
2019-05-10T07:39:44.974Z,75.20
2019-05-10T07:42:28.325Z,73.80
2019-05-10T07:44:57.790Z,72.80
2019-05-10T07:47:30.575Z,72.40
2019-05-10T07:49:58.364Z,70.80
2019-05-10T07:52:27.763Z,70.80
2019-05-10T07:54:57.262Z,70.90
2019-05-10T07:57:27.028Z,70.70
2019-05-10T07:59:57.729Z,70.90
2019-05-10T08:02:27.730Z,72.90
2019-05-10T08:04:58.439Z,73.10
2019-05-10T08:07:29.458Z,71.10
2019-05-10T08:09:59.546Z,70.00
2019-05-10T08:12:29.248Z,69.70
2019-05-10T08:15:00.089Z,69.50
2019-05-10T08:17:29.550Z,70.10
2019-05-10T08:19:59.062Z,69.50
2019-05-10T08:22:32.839Z,68.70
2019-05-10T08:24:59.602Z,70.00
2019-05-10T08:27:29.045Z,70.60
2019-05-10T08:30:17.937Z,71.50
2019-05-10T08:32:32.240Z,74.40
2019-05-10T08:35:05.076Z,76.20
2019-05-10T08:37:37.415Z,77.00
2019-05-10T08:40:05.418Z,75.50
2019-05-10T08:42:44.218Z,76.80
2019-05-10T08:45:08.925Z,77.40
2019-05-10T08:47:38.650Z,78.10
2019-05-10T08:50:26.030Z,78.20
2019-05-10T08:52:39.340Z,78.50
2019-05-10T08:55:08.844Z,79.00
2019-05-10T08:57:44.439Z,79.30
2019-05-10T09:00:09.856Z,79.00
2019-05-10T09:02:39.351Z,78.20
2019-05-10T09:05:09.027Z,77.80
2019-05-10T09:07:39.059Z,77.80
2019-05-10T09:10:09.835Z,76.40
2019-05-10T09:12:41.785Z,74.80
2019-05-10T09:15:13.462Z,75.80
2019-05-10T09:17:42.858Z,75.50
2019-05-10T09:20:20.848Z,75.80
2019-05-10T09:22:44.266Z,75.10
2019-05-10T09:25:13.987Z,74.00
2019-05-10T09:27:43.508Z,74.10
2019-05-10T09:30:18.405Z,72.70
2019-05-10T09:32:45.956Z,71.60
2019-05-10T09:35:15.481Z,69.60
2019-05-10T09:37:47.796Z,69.50
2019-05-10T09:40:16.084Z,69.10
2019-05-10T09:42:45.534Z,67.90
2019-05-10T09:45:15.202Z,67.90
2019-05-10T09:47:44.658Z,66.40
2019-05-10T09:50:14.762Z,65.90
2019-05-10T09:52:44.210Z,63.00
2019-05-10T09:55:15.003Z,63.20
2019-05-10T09:57:47.745Z,64.10
2019-05-10T10:00:17.500Z,63.70
2019-05-10T10:02:55.890Z,62.60
2019-05-10T10:05:18.163Z,62.30
2019-05-10T10:07:48.155Z,63.90
2019-05-10T10:10:29.072Z,63.90
2019-05-10T10:12:58.443Z,63.30
2019-05-10T10:15:33.648Z,62.30
2019-05-10T10:17:58.288Z,64.30
2019-05-10T10:20:29.967Z,63.50
2019-05-10T10:22:59.027Z,62.80
2019-05-10T10:25:30.002Z,62.50
2019-05-10T10:27:59.552Z,63.90
2019-05-10T10:30:31.422Z,63.60
2019-05-10T10:33:00.259Z,61.00
2019-05-10T10:35:29.972Z,59.80
2019-05-10T10:38:02.788Z,61.20
2019-05-10T10:40:35.484Z,61.80
2019-05-10T10:43:07.385Z,61.30
2019-05-10T10:45:38.552Z,60.50
2019-05-10T10:48:12.632Z,60.80
2019-05-10T10:50:59.525Z,59.80
2019-05-10T10:53:28.913Z,60.40
2019-05-10T10:56:03.647Z,57.90
2019-05-10T10:58:29.386Z,58.30
2019-05-10T11:00:58.821Z,58.00
2019-05-10T11:03:30.351Z,57.80
2019-05-10T11:05:59.433Z,57.90
2019-05-10T11:08:32.865Z,58.30
2019-05-10T11:11:00.576Z,56.70
2019-05-10T11:13:45.043Z,57.60
2019-05-10T11:16:10.752Z,57.20
2019-05-10T11:18:41.671Z,56.10
2019-05-10T11:21:11.294Z,56.30
2019-05-10T11:23:41.907Z,57.50
2019-05-10T11:26:11.609Z,58.90
2019-05-10T11:28:44.226Z,60.70
2019-05-10T11:31:12.242Z,62.30
2019-05-10T11:33:41.864Z,64.90
2019-05-10T11:36:12.788Z,68.60
2019-05-10T11:38:42.243Z,70.30
2019-05-10T11:41:20.664Z,73.90
2019-05-10T11:43:43.730Z,77.70
2019-05-10T11:46:14.249Z,78.30
2019-05-10T11:48:43.701Z,77.30
2019-05-10T11:51:17.396Z,78.90
2019-05-10T11:53:48.941Z,75.80
2019-05-10T11:56:15.515Z,74.10
2019-05-10T12:01:19.260Z,73.40
2019-05-10T12:03:47.675Z,68.70
2019-05-10T12:06:17.296Z,67.80
2019-05-10T12:08:46.743Z,67.40
2019-05-10T12:11:29.294Z,66.90
2019-05-10T12:13:47.307Z,67.90
2019-05-10T12:16:17.270Z,66.50
2019-05-10T12:19:02.322Z,65.70
2019-05-10T12:21:21.714Z,63.90
2019-05-10T12:23:55.578Z,66.20
2019-05-10T12:26:00.229Z,73.90
2019-05-10T12:28:52.727Z,67.70
2019-05-10T12:31:23.297Z,65.70
2019-05-10T12:33:53.075Z,64.50
2019-05-10T12:36:27.357Z,63.00
2019-05-10T12:38:56.013Z,62.80
2019-05-10T12:41:24.676Z,64.00
2019-05-10T12:44:02.948Z,60.90
2019-05-10T12:46:25.316Z,60.70
2019-05-10T12:48:54.749Z,59.80
2019-05-10T12:51:24.205Z,57.80
2019-05-10T12:53:53.698Z,58.70
2019-05-10T12:56:23.984Z,59.70
2019-05-10T12:58:57.945Z,59.90
2019-05-10T13:01:25.439Z,58.50
2019-05-10T13:03:55.717Z,58.50
2019-05-10T13:06:25.231Z,57.80
2019-05-10T13:08:54.673Z,55.80
2019-05-10T13:11:25.315Z,55.20
2019-05-10T13:13:55.246Z,54.60
2019-05-10T13:16:26.734Z,53.50
2019-05-10T13:18:56.315Z,53.30
2019-05-10T13:21:25.756Z,52.30
2019-05-10T13:23:55.364Z,52.90
2019-05-10T13:26:25.110Z,52.10
2019-05-10T13:28:54.619Z,50.80
2019-05-10T13:31:24.066Z,50.00
2019-05-10T13:33:53.519Z,48.50
2019-05-10T13:36:23.061Z,47.30
2019-05-10T13:38:52.519Z,49.10
2019-05-10T13:41:24.109Z,50.90
2019-05-10T13:43:53.154Z,53.10
2019-05-10T13:46:32.594Z,57.10
2019-05-10T13:49:02.081Z,59.60
2019-05-10T13:51:31.571Z,61.40
2019-05-10T13:54:05.832Z,61.60
2019-05-10T13:56:35.341Z,61.00
2019-05-10T13:59:15.385Z,60.50
2019-05-10T14:01:36.076Z,61.20
2019-05-10T14:04:05.519Z,61.60
2019-05-10T14:06:36.494Z,61.60
2019-05-10T14:09:07.607Z,61.40
2019-05-10T14:11:41.000Z,60.30
2019-05-10T14:14:14.429Z,61.90
2019-05-10T14:16:42.540Z,62.60
2019-05-10T14:19:15.805Z,62.30
2019-05-10T14:21:43.376Z,60.20
2019-05-10T14:24:22.956Z,60.50
2019-05-10T14:26:57.077Z,60.20
2019-05-10T14:29:32.859Z,62.10
2019-05-10T14:31:55.599Z,61.40
2019-05-10T14:34:26.342Z,63.50
2019-05-10T14:36:55.816Z,61.70
2019-05-10T14:39:25.270Z,63.00
2019-05-10T14:41:54.733Z,58.00
2019-05-10T14:44:24.230Z,53.50
2019-05-10T14:46:53.974Z,52.30
2019-05-10T14:49:23.415Z,51.20
2019-05-10T14:51:59.027Z,52.20
2019-05-10T14:54:23.973Z,52.20
2019-05-10T14:56:54.033Z,49.10
2019-05-10T14:59:24.794Z,46.20
2019-05-10T15:01:54.266Z,45.90
2019-05-10T15:04:44.500Z,44.10
2019-05-10T15:06:55.096Z,46.00
2019-05-10T15:09:24.602Z,43.50
2019-05-10T15:12:10.163Z,42.60
2019-05-10T15:14:44.948Z,43.60
2019-05-10T15:17:19.443Z,46.50
2019-05-10T15:19:55.887Z,48.20
2019-05-10T15:22:37.123Z,47.30
2019-05-10T15:25:06.827Z,48.40
2019-05-10T15:27:36.259Z,49.20
2019-05-10T15:30:08.200Z,50.20
2019-05-10T15:32:37.964Z,51.40
2019-05-10T15:35:10.684Z,51.00
2019-05-10T15:37:46.197Z,52.90
2019-05-10T15:40:15.900Z,51.90
2019-05-10T15:42:45.340Z,52.40
2019-05-10T15:45:19.333Z,51.70
2019-05-10T15:47:51.757Z,52.00
2019-05-10T15:50:19.481Z,52.30
2019-05-10T15:52:48.980Z,52.40
2019-05-10T15:55:26.783Z,51.30
2019-05-10T15:57:51.671Z,51.20
2019-05-10T16:00:25.134Z,52.90
2019-05-10T16:02:53.625Z,52.00
2019-05-10T16:05:29.726Z,51.60
2019-05-10T16:07:54.184Z,52.60
2019-05-10T16:10:28.432Z,52.60
2019-05-10T16:12:54.830Z,53.70
2019-05-10T16:15:24.382Z,54.30
2019-05-10T16:17:59.834Z,54.10
2019-05-10T16:20:31.576Z,53.50
2019-05-10T16:23:02.871Z,54.30
2019-05-10T16:25:32.950Z,54.10
2019-05-10T16:28:02.984Z,54.40
2019-05-10T16:30:32.487Z,55.50
2019-05-10T16:33:01.926Z,55.00
2019-05-10T16:35:38.872Z,55.20
2019-05-10T16:38:07.327Z,55.60
2019-05-10T16:40:36.784Z,55.20
2019-05-10T16:43:07.006Z,55.60
2019-05-10T16:45:37.538Z,54.50
2019-05-10T16:48:08.072Z,54.20
2019-05-10T16:50:40.253Z,54.20
2019-05-10T16:53:09.955Z,53.70
2019-05-10T16:55:42.953Z,55.20
2019-05-10T16:58:15.109Z,54.10
2019-05-10T17:00:46.086Z,54.20
2019-05-10T17:03:18.562Z,54.40
2019-05-10T17:05:53.430Z,53.80
2019-05-10T17:08:19.623Z,53.70
2019-05-10T17:10:49.073Z,54.80
2019-05-10T17:13:18.542Z,55.00
2019-05-10T17:15:49.219Z,55.80
2019-05-10T17:18:22.179Z,56.40
2019-05-10T17:20:55.249Z,57.20
2019-05-10T17:23:24.773Z,57.10
2019-05-10T17:25:54.789Z,58.30
2019-05-10T17:28:24.246Z,57.80
2019-05-10T17:30:59.834Z,57.90
2019-05-10T17:33:28.066Z,58.10
2019-05-10T17:36:07.968Z,60.00
2019-05-10T17:38:31.696Z,62.50
2019-05-10T17:41:01.372Z,63.10
2019-05-10T17:43:32.802Z,64.90
2019-05-10T17:46:07.139Z,64.50
2019-05-10T17:48:47.045Z,65.00
2019-05-10T17:51:13.454Z,66.10
2019-05-10T17:53:45.477Z,69.40
2019-05-10T17:56:16.387Z,71.10
2019-05-10T17:58:45.866Z,72.80
2019-05-10T18:01:15.315Z,73.30
2019-05-10T18:03:48.774Z,74.30
2019-05-10T18:06:23.935Z,75.40
2019-05-10T18:08:49.295Z,76.40
2019-05-10T18:11:18.758Z,74.30
2019-05-10T18:13:48.214Z,77.30
2019-05-10T18:16:17.742Z,78.20
2019-05-10T18:18:48.516Z,71.70
2019-05-10T18:21:21.849Z,69.40
2019-05-10T18:23:52.621Z,70.10
2019-05-10T18:26:22.415Z,70.50
2019-05-10T18:28:53.231Z,70.60
2019-05-10T18:31:22.705Z,70.00
2019-05-10T18:33:54.584Z,70.60
2019-05-10T18:36:24.823Z,70.50
2019-05-10T18:38:54.686Z,71.90
2019-05-10T18:41:24.142Z,74.20
2019-05-10T18:43:53.583Z,74.20
2019-05-10T18:46:25.006Z,73.70
2019-05-10T18:48:55.688Z,71.30
2019-05-10T18:51:34.237Z,72.80
2019-05-10T18:53:57.959Z,73.10
2019-05-10T18:56:31.429Z,72.40
2019-05-10T18:59:06.559Z,72.60
2019-05-10T19:01:32.787Z,73.50
2019-05-10T19:04:07.343Z,74.30
2019-05-10T19:06:33.861Z,75.00
2019-05-10T19:09:05.163Z,72.70
2019-05-10T19:11:38.890Z,74.30
2019-05-10T19:14:06.045Z,73.90
2019-05-10T19:16:35.478Z,75.00
2019-05-10T19:19:04.898Z,75.20
2019-05-10T19:21:37.788Z,76.60
2019-05-10T19:24:08.177Z,76.80
2019-05-10T19:26:39.061Z,75.60
2019-05-10T19:29:08.537Z,76.00
2019-05-10T19:31:40.140Z,76.50
2019-05-10T19:34:15.137Z,76.60
2019-05-10T19:36:41.041Z,77.30
2019-05-10T19:39:10.578Z,76.60
2019-05-10T19:41:40.033Z,78.30
2019-05-10T19:44:09.486Z,78.10
2019-05-10T19:46:40.773Z,78.80
2019-05-10T19:49:15.544Z,80.60
2019-05-10T19:51:48.265Z,80.90
2019-05-10T19:54:21.319Z,81.10
2019-05-10T19:56:54.917Z,81.80
2019-05-10T19:59:24.310Z,80.80
2019-05-10T20:01:58.043Z,82.00
2019-05-10T20:04:27.527Z,82.80
2019-05-10T20:06:59.122Z,82.00
2019-05-10T20:09:35.554Z,82.20
2019-05-10T20:12:05.817Z,82.50
2019-05-10T20:14:35.260Z,82.00
2019-05-10T20:17:09.868Z,83.10
2019-05-10T20:19:40.949Z,82.30
2019-05-10T20:22:13.330Z,82.70
2019-05-10T20:24:44.005Z,83.40
2019-05-10T20:27:13.430Z,83.80
2019-05-10T20:29:44.269Z,82.40
2019-05-10T20:32:16.567Z,83.30
2019-05-10T20:34:48.589Z,82.60
2019-05-10T20:37:20.687Z,83.70
2019-05-10T20:39:54.428Z,83.40
2019-05-10T20:42:23.913Z,82.80
2019-05-10T20:45:06.651Z,82.90
2019-05-10T20:47:25.122Z,83.80
2019-05-10T20:49:58.378Z,84.60
2019-05-10T20:52:30.778Z,84.70
2019-05-10T20:55:02.049Z,84.80
2019-05-10T20:57:33.942Z,85.20
2019-05-10T21:00:07.317Z,84.70
2019-05-10T21:02:38.043Z,84.80
2019-05-10T21:05:07.656Z,84.20
2019-05-10T21:07:39.190Z,84.00
2019-05-10T21:10:10.254Z,83.90
2019-05-10T21:12:41.240Z,83.80
2019-05-10T21:15:12.575Z,84.30
2019-05-10T21:17:42.353Z,84.10
2019-05-10T21:20:13.765Z,84.20
2019-05-10T21:22:43.246Z,84.20
2019-05-10T21:25:12.963Z,84.30
2019-05-10T21:27:42.537Z,84.60
2019-05-10T21:30:12.578Z,83.60
2019-05-10T21:32:43.259Z,83.30
2019-05-10T21:35:14.092Z,83.80
2019-05-10T21:37:43.527Z,85.00
2019-05-10T21:40:13.108Z,83.70
2019-05-10T21:42:42.582Z,83.60
2019-05-10T21:45:13.595Z,83.40
2019-05-10T21:47:51.543Z,83.20
2019-05-10T21:50:15.169Z,83.30
2019-05-10T21:52:44.702Z,83.50
2019-05-10T21:55:14.158Z,83.20
2019-05-10T21:57:45.320Z,83.60
2019-05-10T22:00:22.312Z,83.20
2019-05-10T22:02:53.459Z,83.00
2019-05-10T22:05:24.701Z,82.70
2019-05-10T22:07:57.985Z,83.10
2019-05-10T22:10:29.202Z,83.30
2019-05-10T22:13:01.404Z,83.50
2019-05-10T22:15:30.918Z,83.60
2019-05-10T22:18:01.740Z,83.50
2019-05-10T22:20:33.283Z,83.40
2019-05-10T22:23:15.335Z,83.90
2019-05-10T22:25:48.465Z,83.30
2019-05-10T22:28:21.351Z,83.30
2019-05-10T22:30:57.156Z,83.10
2019-05-10T22:33:26.638Z,83.30
2019-05-10T22:35:56.195Z,83.60
2019-05-10T22:38:25.658Z,83.10
2019-05-10T22:40:56.278Z,83.10
2019-05-10T22:43:29.795Z,83.20
2019-05-10T22:45:59.660Z,83.30
2019-05-10T22:48:29.242Z,83.20
2019-05-10T22:50:58.746Z,83.10
2019-05-10T22:53:28.194Z,83.50
2019-05-10T22:55:57.735Z,83.60
2019-05-10T22:58:28.109Z,83.20
2019-05-10T23:00:57.581Z,83.20
2019-05-10T23:03:27.058Z,83.40
2019-05-10T23:05:56.766Z,83.40
2019-05-10T23:08:26.231Z,82.70
2019-05-10T23:10:55.718Z,82.70
2019-05-10T23:13:25.438Z,83.40
2019-05-10T23:15:54.909Z,82.80
2019-05-10T23:18:24.380Z,83.40
2019-05-10T23:20:53.901Z,83.40
2019-05-10T23:23:23.422Z,83.20
2019-05-10T23:25:54.287Z,83.80
2019-05-10T23:28:24.466Z,83.30
2019-05-10T23:30:54.903Z,84.50
2019-05-10T23:33:24.286Z,84.20
2019-05-10T23:35:54.995Z,84.90
2019-05-10T23:38:24.502Z,84.70
2019-05-10T23:40:54.025Z,84.90
2019-05-10T23:43:23.489Z,86.00
2019-05-10T23:45:52.926Z,85.70
2019-05-10T23:48:22.418Z,85.60
2019-05-10T23:50:53.545Z,85.80
2019-05-10T23:53:24.530Z,86.10
2019-05-10T23:56:01.220Z,86.20
2019-05-10T23:58:30.671Z,86.50
